Time;durP1;ratioP1;P1;durP2;ratioP2;P2;SDS_P1;SDS_P2;PMS_P1;PMS_P2;Temp;Humidity;BMP_temperature;BMP_pressure;BME280_temperature;BME280_humidity;BME280_pressure;Samples;Min_cycle;Max_cycle;Signal;HPM_P1;HPM_P2
2024/05/04 00:01:45;;;;;;;14.70;9.60;;;10.30;99.90;;;;;;5476488;26;20102;-67
2024/05/04 00:04:11;;;;;;;20.95;10.68;;;10.30;99.90;;;;;;5451914;26;20009;-67
2024/05/04 00:06:36;;;;;;;16.50;10.88;;;10.30;99.90;;;;;;5445208;26;20070;-67
2024/05/04 00:09:02;;;;;;;21.60;10.98;;;10.30;99.90;;;;;;5444883;26;20018;-66
2024/05/04 00:11:27;;;;;;;15.75;10.00;;;10.30;99.90;;;;;;5475197;26;19994;-67
2024/05/04 00:13:53;;;;;;;18.00;11.20;;;10.30;99.90;;;;;;5472788;26;19999;-67
2024/05/04 00:16:19;;;;;;;18.90;10.73;;;10.30;99.90;;;;;;5464755;26;20002;-67
2024/05/04 00:18:44;;;;;;;19.35;11.43;;;10.20;99.90;;;;;;5463387;26;19994;-67
2024/05/04 00:21:16;;;;;;;19.80;12.55;;;10.20;99.90;;;;;;5469371;26;20090;-67
2024/05/04 00:23:41;;;;;;;16.95;11.45;;;10.20;99.90;;;;;;5466784;26;20460;-67
2024/05/04 00:26:08;;;;;;;17.15;11.13;;;10.20;99.90;;;;;;5464392;26;19994;-66
2024/05/04 00:28:34;;;;;;;19.80;11.57;;;10.20;99.90;;;;;;5469484;26;20506;-67
2024/05/04 00:31:00;;;;;;;20.98;12.43;;;10.20;99.90;;;;;;5472370;26;20122;-67
2024/05/04 00:33:25;;;;;;;20.42;11.57;;;10.20;99.90;;;;;;5466862;26;20074;-67
2024/05/04 00:35:51;;;;;;;18.45;11.88;;;10.10;99.90;;;;;;5470846;26;20006;-67
2024/05/04 00:38:17;;;;;;;17.17;12.18;;;10.20;99.90;;;;;;5468908;26;20009;-67
2024/05/04 00:40:42;;;;;;;16.70;11.80;;;10.20;99.90;;;;;;5469156;26;19998;-67
2024/05/04 00:43:10;;;;;;;17.67;11.05;;;10.10;99.90;;;;;;5471516;26;20038;-67
2024/05/04 00:45:35;;;;;;;16.52;11.98;;;10.10;99.90;;;;;;5441561;26;20010;-67
2024/05/04 00:48:02;;;;;;;18.27;12.85;;;10.10;99.90;;;;;;5429933;26;19998;-67
2024/05/04 00:50:28;;;;;;;18.80;12.20;;;10.10;99.90;;;;;;5428294;26;22041;-67
2024/05/04 00:52:54;;;;;;;16.50;11.95;;;10.00;99.90;;;;;;5435366;26;19991;-66
2024/05/04 00:55:22;;;;;;;17.40;12.95;;;10.00;99.90;;;;;;5436502;26;20306;-67
2024/05/04 00:57:52;;;;;;;17.60;12.93;;;10.00;99.90;;;;;;5431816;26;19996;-67
2024/05/04 01:00:17;;;;;;;20.65;13.57;;;10.00;99.90;;;;;;5423871;26;20010;-67
2024/05/04 01:02:44;;;;;;;16.88;12.93;;;9.90;99.90;;;;;;5436300;26;19995;-67
2024/05/04 01:05:11;;;;;;;18.98;13.68;;;10.00;99.90;;;;;;5431643;26;20071;-67
2024/05/04 01:07:38;;;;;;;19.67;13.23;;;9.90;99.90;;;;;;5438076;26;19995;-67
2024/05/04 01:10:04;;;;;;;19.02;12.85;;;9.90;99.90;;;;;;5429574;26;20010;-68
2024/05/04 01:12:30;;;;;;;19.80;13.05;;;9.90;99.90;;;;;;5440727;26;20334;-67
2024/05/04 01:14:55;;;;;;;19.05;13.55;;;9.90;99.90;;;;;;5438021;26;20015;-68
2024/05/04 01:17:21;;;;;;;15.57;13.20;;;9.90;99.90;;;;;;5441714;26;20000;-68
2024/05/04 01:19:47;;;;;;;18.83;13.32;;;9.80;99.90;;;;;;5437989;26;20041;-67
2024/05/04 01:22:13;;;;;;;22.52;13.75;;;9.80;99.90;;;;;;5440595;26;19999;-67
2024/05/04 01:24:40;;;;;;;19.52;13.15;;;9.80;99.90;;;;;;5435245;26;20023;-67
2024/05/04 01:27:06;;;;;;;17.48;13.02;;;9.80;99.90;;;;;;5444663;26;20329;-67
2024/05/04 01:29:32;;;;;;;21.05;14.02;;;9.70;99.90;;;;;;5431724;26;20006;-67
2024/05/04 01:31:57;;;;;;;19.05;14.85;;;9.70;99.90;;;;;;5435320;26;20003;-67
2024/05/04 01:34:23;;;;;;;17.50;13.93;;;9.70;99.90;;;;;;5431004;26;20014;-67
2024/05/04 01:36:48;;;;;;;20.70;13.93;;;9.70;99.90;;;;;;5441552;26;20072;-67
2024/05/04 01:39:14;;;;;;;22.20;14.60;;;9.60;99.90;;;;;;5434323;26;19995;-66
2024/05/04 01:41:44;;;;;;;23.13;14.80;;;9.60;99.90;;;;;;5431441;26;19999;-67
2024/05/04 01:44:09;;;;;;;21.40;14.15;;;9.60;99.90;;;;;;5443638;26;20002;-67
2024/05/04 01:46:35;;;;;;;19.77;14.27;;;9.50;99.90;;;;;;5466460;26;19998;-66
2024/05/04 01:49:01;;;;;;;24.10;16.45;;;9.40;99.90;;;;;;5466946;26;20008;-67
2024/05/04 01:51:26;;;;;;;;;;;9.40;99.90;;;;;;5474226;26;20071;-67
2024/05/04 01:53:52;;;;;;;22.75;15.00;;;9.40;99.90;;;;;;5471795;26;19924;-67
2024/05/04 01:56:18;;;;;;;25.38;14.65;;;9.40;99.90;;;;;;5449190;26;20006;-67
2024/05/04 01:58:44;;;;;;;16.67;13.43;;;9.40;99.90;;;;;;5440570;26;19999;-67
2024/05/04 02:01:17;;;;;;;16.67;12.93;;;9.30;99.90;;;;;;5468064;26;20013;-67
2024/05/04 02:03:43;;;;;;;16.67;13.10;;;9.30;99.90;;;;;;5445616;26;20010;-67
2024/05/04 02:06:09;;;;;;;21.40;14.35;;;9.20;99.90;;;;;;5468357;26;19998;-67
2024/05/04 02:08:34;;;;;;;19.88;14.82;;;9.10;99.90;;;;;;5465795;26;20013;-67
2024/05/04 02:11:00;;;;;;;19.02;13.88;;;9.10;99.90;;;;;;5466793;26;20010;-67
2024/05/04 02:13:26;;;;;;;17.70;13.82;;;9.00;99.90;;;;;;5447687;26;20018;-67
2024/05/04 02:15:51;;;;;;;20.50;13.60;;;9.00;99.90;;;;;;5442135;26;20011;-67
2024/05/04 02:18:17;;;;;;;15.57;13.23;;;9.00;99.90;;;;;;5475361;26;19994;-66
2024/05/04 02:20:42;;;;;;;20.67;13.68;;;8.90;99.90;;;;;;5445205;26;20321;-66
2024/05/04 02:23:09;;;;;;;18.73;13.98;;;8.90;99.90;;;;;;5472041;26;19998;-67
2024/05/04 02:25:35;;;;;;;17.90;15.13;;;8.80;99.90;;;;;;5467024;26;19998;-66
2024/05/04 02:28:00;;;;;;;17.33;14.43;;;8.80;99.90;;;;;;5442998;26;20010;-66
2024/05/04 02:30:29;;;;;;;19.92;14.15;;;8.70;99.90;;;;;;5429215;26;20015;-66
2024/05/04 02:32:54;;;;;;;21.52;15.50;;;8.70;99.90;;;;;;5470551;26;20598;-66
2024/05/04 02:35:20;;;;;;;17.00;13.38;;;8.70;99.90;;;;;;5470263;26;20008;-67
2024/05/04 02:37:46;;;;;;;20.52;15.15;;;8.70;99.90;;;;;;5436076;26;20030;-67
2024/05/04 02:40:11;;;;;;;21.55;15.43;;;8.60;99.90;;;;;;5447469;26;20017;-67
2024/05/04 02:42:37;;;;;;;22.65;16.33;;;8.60;99.90;;;;;;5466341;26;19994;-67
2024/05/04 02:45:03;;;;;;;22.30;16.67;;;8.60;99.90;;;;;;5467005;26;20461;-67
2024/05/04 02:47:28;;;;;;;20.70;15.60;;;8.70;99.90;;;;;;5465168;26;20378;-67
2024/05/04 02:49:54;;;;;;;22.17;16.73;;;8.70;99.90;;;;;;5465593;26;20399;-67
2024/05/04 02:52:20;;;;;;;25.17;16.83;;;8.70;99.90;;;;;;5468277;26;20070;-67
2024/05/04 02:54:45;;;;;;;20.98;16.20;;;8.70;99.90;;;;;;5462778;26;19999;-67
2024/05/04 02:57:11;;;;;;;21.92;15.43;;;8.70;99.90;;;;;;5471304;26;19998;-67
2024/05/04 02:59:36;;;;;;;21.35;15.70;;;8.70;99.90;;;;;;5441285;26;20008;-67
2024/05/04 03:02:02;;;;;;;19.52;15.40;;;8.70;99.90;;;;;;5471519;26;20469;-67
2024/05/04 03:04:27;;;;;;;23.80;16.23;;;8.70;99.90;;;;;;5469035;26;20006;-67
2024/05/04 03:06:53;;;;;;;21.23;15.13;;;8.70;99.90;;;;;;5446877;26;20334;-67
2024/05/04 03:09:19;;;;;;;20.25;15.02;;;8.70;99.90;;;;;;5471185;26;20002;-67
2024/05/04 03:11:44;;;;;;;17.35;14.93;;;8.70;99.90;;;;;;5477890;26;20030;-67
2024/05/04 03:14:10;;;;;;;21.17;14.68;;;8.60;99.90;;;;;;5469846;26;20357;-67
2024/05/04 03:16:41;;;;;;;20.40;15.30;;;8.60;99.90;;;;;;5465761;26;20006;-67
2024/05/04 03:19:06;;;;;;;22.17;15.98;;;8.60;99.90;;;;;;5441702;26;20445;-67
2024/05/04 03:21:40;;;;;;;21.67;15.60;;;8.60;99.90;;;;;;5449862;26;20009;-67
2024/05/04 03:24:06;;;;;;;20.95;15.95;;;8.60;99.90;;;;;;5467131;26;20017;-67
2024/05/04 03:26:35;;;;;;;20.30;16.40;;;8.50;99.90;;;;;;5463917;26;19998;-67
2024/05/04 03:29:01;;;;;;;22.77;16.73;;;8.50;99.90;;;;;;5448739;26;20270;-67
2024/05/04 03:31:26;;;;;;;24.52;18.10;;;8.50;99.90;;;;;;5470510;26;20013;-67
2024/05/04 03:33:52;;;;;;;20.85;16.67;;;8.50;99.90;;;;;;5468557;26;19994;-67
2024/05/04 03:36:18;;;;;;;20.02;16.30;;;8.50;99.90;;;;;;5464843;26;20013;-67
2024/05/04 03:38:43;;;;;;;19.58;16.10;;;8.50;99.90;;;;;;5469345;26;19995;-67
2024/05/04 03:41:10;;;;;;;24.65;16.90;;;8.40;99.90;;;;;;5468066;26;20445;-67
2024/05/04 03:43:35;;;;;;;;;;;8.40;99.90;;;;;;5467909;26;20011;-67
2024/05/04 03:46:01;;;;;;;22.95;16.38;;;8.30;99.90;;;;;;5469523;26;19924;-67
2024/05/04 03:48:26;;;;;;;23.85;17.63;;;8.30;99.90;;;;;;5464251;26;20018;-68
2024/05/04 03:50:52;;;;;;;27.27;17.67;;;8.30;99.90;;;;;;5473606;26;20381;-67
2024/05/04 03:53:18;;;;;;;24.73;16.33;;;8.30;99.90;;;;;;5470574;26;19998;-67
2024/05/04 03:55:43;;;;;;;21.08;15.45;;;8.30;99.90;;;;;;5469436;26;20007;-67
2024/05/04 03:58:09;;;;;;;23.13;16.13;;;8.30;99.90;;;;;;5475627;26;20428;-67
2024/05/04 04:00:34;;;;;;;24.08;16.77;;;8.30;99.90;;;;;;5477879;26;20016;-67
2024/05/04 04:03:00;;;;;;;19.60;16.40;;;8.20;99.90;;;;;;5465969;26;20023;-67
2024/05/04 04:05:25;;;;;;;22.25;16.60;;;8.20;99.90;;;;;;5472833;26;20010;-67
2024/05/04 04:07:51;;;;;;;20.83;17.20;;;8.20;99.90;;;;;;5432219;26;20502;-67
2024/05/04 04:10:16;;;;;;;21.45;17.02;;;8.20;99.90;;;;;;5465683;26;20003;-67
2024/05/04 04:12:42;;;;;;;25.52;17.50;;;8.20;99.90;;;;;;5443007;26;19995;-67
2024/05/04 04:15:07;;;;;;;22.52;16.60;;;8.20;99.90;;;;;;5470137;26;20464;-67
2024/05/04 04:17:34;;;;;;;21.45;16.85;;;8.30;99.90;;;;;;5479458;26;19998;-68
2024/05/04 04:20:00;;;;;;;22.25;17.02;;;8.30;99.90;;;;;;5478692;26;20001;-67
2024/05/04 04:22:25;;;;;;;22.40;15.73;;;8.30;99.90;;;;;;5444750;26;20449;-67
2024/05/04 04:24:51;;;;;;;18.73;15.40;;;8.30;99.90;;;;;;5468597;26;20034;-67
2024/05/04 04:27:16;;;;;;;20.90;15.88;;;8.30;99.90;;;;;;5460784;26;19995;-68
2024/05/04 04:29:42;;;;;;;20.95;15.45;;;8.40;99.90;;;;;;5466342;26;20009;-67
2024/05/04 04:32:07;;;;;;;20.08;15.30;;;8.40;99.90;;;;;;5438610;26;20358;-67
2024/05/04 04:34:33;;;;;;;22.88;15.13;;;8.40;99.90;;;;;;5449572;26;20021;-67
2024/05/04 04:36:58;;;;;;;19.80;15.50;;;8.50;99.90;;;;;;5439511;26;20472;-67
2024/05/04 04:39:24;;;;;;;23.48;15.18;;;8.50;99.90;;;;;;5446279;26;20074;-67
2024/05/04 04:41:50;;;;;;;18.08;14.27;;;8.60;99.90;;;;;;5469044;26;20067;-67
2024/05/04 04:44:15;;;;;;;18.55;15.25;;;8.60;99.90;;;;;;5469011;26;19998;-68
2024/05/04 04:46:41;;;;;;;23.83;15.95;;;8.60;99.90;;;;;;5440483;26;20332;-68
2024/05/04 04:49:06;;;;;;;23.42;15.73;;;8.70;99.90;;;;;;5466225;26;19998;-67
2024/05/04 04:51:32;;;;;;;21.17;13.55;;;8.80;99.90;;;;;;5482568;26;20097;-68
2024/05/04 04:53:57;;;;;;;18.25;15.45;;;8.80;99.90;;;;;;5440459;26;19997;-68
2024/05/04 04:56:23;;;;;;;24.05;15.13;;;8.90;99.90;;;;;;5465821;26;19998;-68
2024/05/04 04:58:49;;;;;;;19.95;14.73;;;8.90;99.90;;;;;;5465336;26;20325;-68
2024/05/04 05:01:15;;;;;;;20.77;14.32;;;9.00;99.90;;;;;;5449833;26;19998;-68
2024/05/04 05:03:41;;;;;;;21.38;15.45;;;9.10;99.90;;;;;;5467300;26;20749;-68
2024/05/04 05:06:06;;;;;;;18.63;13.75;;;9.10;99.90;;;;;;5468293;26;20009;-68
2024/05/04 05:08:32;;;;;;;17.90;13.52;;;9.10;99.90;;;;;;5447329;26;20429;-68
2024/05/04 05:10:57;;;;;;;18.15;13.57;;;9.20;99.90;;;;;;5437671;26;20002;-68
2024/05/04 05:13:23;;;;;;;16.60;12.43;;;9.20;99.90;;;;;;5449459;26;20011;-68
2024/05/04 05:15:48;;;;;;;15.13;12.00;;;9.20;99.90;;;;;;5445814;26;19995;-68
2024/05/04 05:18:14;;;;;;;14.65;11.85;;;9.20;99.90;;;;;;5469949;26;19999;-68
2024/05/04 05:20:39;;;;;;;16.27;12.45;;;9.20;99.90;;;;;;5472649;26;20490;-68
2024/05/04 05:23:05;;;;;;;19.58;11.55;;;9.30;99.90;;;;;;5473447;26;19998;-68
2024/05/04 05:25:31;;;;;;;18.45;12.23;;;9.30;99.90;;;;;;5469095;26;20383;-68
2024/05/04 05:27:58;;;;;;;17.98;12.52;;;9.30;99.90;;;;;;5449465;26;20006;-68
2024/05/04 05:30:23;;;;;;;16.02;11.73;;;9.40;99.90;;;;;;5449231;26;20118;-68
2024/05/04 05:32:49;;;;;;;16.85;12.15;;;9.40;99.90;;;;;;5471381;26;20331;-69
2024/05/04 05:35:15;;;;;;;16.15;12.02;;;9.40;99.90;;;;;;5464251;26;20002;-68
2024/05/04 05:37:40;;;;;;;17.38;11.50;;;9.40;99.90;;;;;;5445993;26;20071;-68
2024/05/04 05:40:06;;;;;;;15.40;10.57;;;9.40;99.90;;;;;;5467457;26;20188;-68
2024/05/04 05:42:32;;;;;;;16.25;12.05;;;9.50;99.90;;;;;;5472376;26;20017;-68
2024/05/04 05:44:58;;;;;;;16.30;11.55;;;9.50;99.90;;;;;;5471849;26;20026;-68
2024/05/04 05:47:23;;;;;;;16.92;10.57;;;9.60;99.90;;;;;;5477978;26;20003;-68
2024/05/04 05:49:49;;;;;;;14.25;11.50;;;9.60;99.90;;;;;;5448193;26;20001;-68
2024/05/04 05:52:14;;;;;;;17.38;10.43;;;9.70;99.90;;;;;;5464777;26;19998;-68
2024/05/04 05:54:40;;;;;;;16.30;11.63;;;9.70;99.90;;;;;;5448533;26;20010;-68
2024/05/04 05:57:06;;;;;;;;;;;9.80;99.90;;;;;;5456694;26;20448;-68
2024/05/04 05:59:31;;;;;;;13.40;10.32;;;9.80;99.90;;;;;;5471279;26;20047;-68
2024/05/04 06:01:57;;;;;;;14.30;10.23;;;9.90;99.90;;;;;;5473433;26;20428;-68
2024/05/04 06:04:22;;;;;;;11.68;9.38;;;9.90;99.90;;;;;;5462978;26;20014;-68
2024/05/04 06:06:48;;;;;;;13.90;9.30;;;10.00;99.90;;;;;;5442041;26;20012;-68
2024/05/04 06:09:14;;;;;;;14.57;9.73;;;10.10;99.90;;;;;;5465294;26;20002;-68
2024/05/04 06:11:39;;;;;;;13.52;9.68;;;10.20;99.90;;;;;;5464282;26;20005;-68
2024/05/04 06:14:05;;;;;;;10.85;8.85;;;10.30;99.90;;;;;;5441896;26;20309;-68
2024/05/04 06:16:30;;;;;;;13.95;9.45;;;10.30;99.90;;;;;;5474285;26;20329;-67
2024/05/04 06:18:56;;;;;;;12.88;9.40;;;10.40;99.90;;;;;;5459489;26;20006;-68
2024/05/04 06:21:21;;;;;;;10.82;8.63;;;10.50;99.90;;;;;;5448613;26;20075;-68
2024/05/04 06:23:47;;;;;;;13.48;8.90;;;10.60;99.90;;;;;;5470611;26;20101;-68
2024/05/04 06:26:17;;;;;;;10.05;7.82;;;10.80;99.90;;;;;;5470670;26;19999;-68
2024/05/04 06:28:43;;;;;;;10.77;7.97;;;10.90;99.90;;;;;;5463661;26;20432;-68
2024/05/04 06:31:09;;;;;;;;;;;11.00;99.90;;;;;;5468750;26;20007;-68
2024/05/04 06:33:35;;;;;;;11.82;7.35;;;11.10;99.90;;;;;;5446216;26;19924;-68
2024/05/04 06:36:02;;;;;;;15.05;7.25;;;11.20;99.90;;;;;;5465737;26;20009;-68
2024/05/04 06:38:27;;;;;;;11.80;6.70;;;11.30;99.90;;;;;;5470978;26;20012;-68
2024/05/04 06:40:53;;;;;;;10.43;7.13;;;11.50;99.90;;;;;;5471264;26;20007;-68
2024/05/04 06:43:18;;;;;;;11.77;6.85;;;11.60;99.90;;;;;;5463811;26;20021;-68
2024/05/04 06:45:44;;;;;;;17.10;6.93;;;11.80;99.90;;;;;;5477279;26;20002;-68
2024/05/04 06:48:11;;;;;;;7.22;6.18;;;12.00;99.90;;;;;;5451139;26;19998;-68
2024/05/04 06:50:36;;;;;;;7.45;6.50;;;12.20;99.90;;;;;;5469408;26;19998;-68
2024/05/04 06:53:02;;;;;;;9.73;6.55;;;12.40;99.90;;;;;;5474371;26;19998;-68
2024/05/04 06:55:28;;;;;;;10.85;6.28;;;12.60;99.90;;;;;;5464287;26;19998;-68
2024/05/04 06:57:53;;;;;;;11.43;5.90;;;12.80;99.90;;;;;;5467210;26;20029;-68
2024/05/04 07:00:19;;;;;;;7.68;5.35;;;13.10;99.90;;;;;;5477445;26;20007;-68
2024/05/04 07:02:45;;;;;;;8.98;5.70;;;13.20;99.90;;;;;;5467217;26;20017;-68
2024/05/04 07:05:10;;;;;;;9.20;5.22;;;13.40;99.90;;;;;;5472983;26;19998;-68
2024/05/04 07:07:39;;;;;;;;;;;13.60;99.90;;;;;;5475519;26;20010;-68
2024/05/04 07:10:05;;;;;;;8.85;4.68;;;13.80;99.90;;;;;;5476153;26;19952;-68
2024/05/04 07:12:30;;;;;;;;;;;13.90;99.90;;;;;;5447002;26;20002;-68
2024/05/04 07:14:56;;;;;;;7.93;5.07;;;14.10;99.90;;;;;;5449218;26;20785;-68
2024/05/04 07:17:22;;;;;;;5.68;4.43;;;14.30;99.90;;;;;;5451630;26;20067;-68
2024/05/04 07:19:47;;;;;;;7.65;3.70;;;14.50;99.90;;;;;;5469719;26;20322;-68
2024/05/04 07:22:13;;;;;;;6.85;3.83;;;14.50;99.90;;;;;;5442086;26;20009;-68
2024/05/04 07:24:38;;;;;;;;;;;14.70;99.90;;;;;;5475769;26;20406;-68
2024/05/04 07:27:05;;;;;;;5.85;3.45;;;14.70;99.90;;;;;;5463248;26;20279;-67
2024/05/04 07:29:30;;;;;;;7.50;3.88;;;14.90;99.90;;;;;;5441829;26;19994;-67
2024/05/04 07:31:56;;;;;;;5.30;3.88;;;15.00;99.90;;;;;;5443167;26;19995;-68
2024/05/04 07:34:23;;;;;;;;;;;15.10;99.90;;;;;;5469647;26;20071;-68
2024/05/04 07:36:48;;;;;;;4.95;3.30;;;15.20;99.90;;;;;;5477427;26;20303;-68
2024/05/04 07:39:14;;;;;;;;;;;15.20;99.90;;;;;;5438796;26;19999;-68
2024/05/04 07:41:39;;;;;;;6.95;3.83;;;15.30;99.90;;;;;;5473145;26;19924;-68
2024/05/04 07:44:10;;;;;;;5.93;3.45;;;15.40;99.90;;;;;;5446547;26;20040;-68
2024/05/04 07:46:36;;;;;;;7.60;3.78;;;15.50;99.90;;;;;;5447071;26;20002;-68
2024/05/04 07:49:01;;;;;;;;;;;15.70;99.90;;;;;;5472506;26;20010;-69
2024/05/04 07:51:27;;;;;;;7.50;3.50;;;16.00;99.90;;;;;;5482844;26;19938;-68
2024/05/04 07:53:52;;;;;;;;;;;16.20;99.90;;;;;;5470119;26;20440;-67
2024/05/04 07:56:18;;;;;;;6.25;2.40;;;16.30;99.90;;;;;;5470488;26;19965;-68
2024/05/04 07:58:43;;;;;;;;;;;16.50;99.90;;;;;;5475030;26;20324;-68
2024/05/04 08:01:09;;;;;;;5.07;2.60;;;16.70;99.90;;;;;;5471956;26;19924;-67
2024/05/04 08:03:35;;;;;;;;;;;16.80;99.90;;;;;;5447340;26;20052;-67
2024/05/04 08:06:01;;;;;;;5.20;2.53;;;17.00;99.90;;;;;;5468710;26;20331;-68
2024/05/04 08:08:26;;;;;;;;;;;17.00;99.90;;;;;;5477129;26;23068;-67
2024/05/04 08:10:52;;;;;;;4.70;3.05;;;17.00;99.90;;;;;;5473175;26;19933;-67
2024/05/04 08:13:17;;;;;;;;;;;17.10;99.90;;;;;;5471689;26;20005;-67
2024/05/04 08:15:42;;;;;;;4.45;2.47;;;17.20;99.90;;;;;;5458988;26;20004;-67
2024/05/04 08:18:08;;;;;;;;;;;17.20;99.90;;;;;;5444705;26;20414;-67
2024/05/04 08:20:33;;;;;;;5.07;2.67;;;17.20;99.90;;;;;;5474388;26;20363;-67
2024/05/04 08:22:59;;;;;;;;;;;17.20;99.90;;;;;;5442266;26;19994;-67
2024/05/04 08:25:25;;;;;;;5.07;2.47;;;17.20;99.90;;;;;;5445453;26;19924;-66
2024/05/04 08:27:51;;;;;;;;;;;17.00;99.90;;;;;;5467438;26;20010;-67
2024/05/04 08:30:19;;;;;;;4.40;2.47;;;16.90;99.90;;;;;;5471674;26;19924;-67
2024/05/04 08:32:45;;;;;;;6.68;2.80;;;16.80;99.90;;;;;;5441164;26;20005;-67
2024/05/04 08:35:11;;;;;;;6.93;2.55;;;16.90;99.90;;;;;;5463531;26;19994;-67
2024/05/04 08:37:37;;;;;;;;;;;17.00;99.90;;;;;;5479372;26;19994;-67
2024/05/04 08:40:02;;;;;;;5.72;2.50;;;17.20;99.90;;;;;;5467050;26;19935;-67
2024/05/04 08:42:28;;;;;;;;;;;17.30;99.90;;;;;;5470142;26;20009;-67
2024/05/04 08:44:54;;;;;;;5.38;2.30;;;17.50;99.90;;;;;;5467753;26;19928;-67
2024/05/04 08:47:21;;;;;;;6.70;3.10;;;17.50;99.90;;;;;;5438594;26;19998;-68
2024/05/04 08:49:50;;;;;;;4.22;2.13;;;17.60;99.90;;;;;;5466252;26;20002;-67
2024/05/04 08:52:20;;;;;;;3.58;2.40;;;17.60;99.90;;;;;;5472049;26;20071;-67
2024/05/04 08:54:46;;;;;;;4.15;2.20;;;17.60;99.90;;;;;;5449283;26;20013;-67
2024/05/04 08:57:13;;;;;;;4.85;2.45;;;17.60;99.90;;;;;;5452991;26;19998;-67
2024/05/04 08:59:43;;;;;;;4.05;2.00;;;17.50;99.90;;;;;;5450227;26;19994;-67
2024/05/04 09:02:09;;;;;;;5.57;2.67;;;17.40;99.90;;;;;;5471983;26;20006;-67
2024/05/04 09:04:37;;;;;;;6.40;2.13;;;17.40;99.90;;;;;;5471052;26;19994;-67
2024/05/04 09:07:06;;;;;;;4.35;1.90;;;17.40;99.90;;;;;;5451512;26;20428;-67
2024/05/04 09:09:32;;;;;;;5.57;2.20;;;17.50;99.90;;;;;;5465465;26;19999;-67
2024/05/04 09:11:59;;;;;;;6.95;2.30;;;17.60;99.90;;;;;;5470268;26;20078;-67
2024/05/04 09:14:28;;;;;;;5.55;1.95;;;17.50;99.90;;;;;;5446935;26;20375;-67
2024/05/04 09:16:53;;;;;;;5.72;2.28;;;17.50;99.90;;;;;;5439881;26;20440;-67
2024/05/04 09:19:19;;;;;;;;;;;17.40;99.90;;;;;;5462533;26;20003;-67
2024/05/04 09:21:45;;;;;;;6.72;2.53;;;17.40;99.90;;;;;;5469409;26;19936;-67
2024/05/04 09:24:11;;;;;;;;;;;17.50;99.90;;;;;;5473022;26;19995;-68
2024/05/04 09:26:37;;;;;;;4.50;2.10;;;17.60;99.90;;;;;;5473521;26;19923;-67
2024/05/04 09:29:02;;;;;;;;;;;17.50;99.90;;;;;;5471064;26;20006;-68
2024/05/04 09:31:28;;;;;;;6.50;2.00;;;17.50;99.90;;;;;;5450007;26;19931;-68
2024/05/04 09:33:55;;;;;;;5.78;2.45;;;17.50;99.90;;;;;;5470422;26;19994;-68
2024/05/04 09:36:21;;;;;;;8.05;2.28;;;17.50;99.90;;;;;;5472418;26;20020;-68
2024/05/04 09:39:00;;;;;;;3.30;1.80;;;17.50;99.90;;;;;;5445787;26;19995;-68
2024/05/04 09:41:36;;;;;;;3.42;1.88;;;17.50;99.90;;;;;;5458829;26;20009;-66
2024/05/04 09:44:02;;;;;;;6.63;1.83;;;17.50;99.90;;;;;;5441822;26;19998;-67
2024/05/04 09:46:28;;;;;;;4.88;1.80;;;17.50;99.90;;;;;;5468610;26;19995;-67
2024/05/04 09:48:57;;;;;;;4.35;1.60;;;17.60;99.90;;;;;;5463940;26;20466;-68
2024/05/04 09:51:24;;;;;;;4.68;1.40;;;17.60;99.90;;;;;;5474733;26;20010;-68
2024/05/04 09:53:50;;;;;;;4.32;1.50;;;17.50;99.90;;;;;;5448388;26;20451;-67
2024/05/04 09:56:20;;;;;;;3.97;1.58;;;17.50;99.90;;;;;;5471276;26;20070;-67
2024/05/04 09:58:52;;;;;;;5.00;1.50;;;17.50;99.90;;;;;;5476296;26;19994;-67
2024/05/04 10:01:24;;;;;;;3.30;1.60;;;17.40;99.90;;;;;;5440002;26;19998;-66
2024/05/04 10:03:53;;;;;;;5.28;1.75;;;17.40;99.90;;;;;;5443204;26;20417;-67
2024/05/04 10:06:20;;;;;;;4.55;1.83;;;17.40;99.90;;;;;;5442422;26;20512;-67
2024/05/04 10:08:46;;;;;;;3.42;1.75;;;17.40;99.90;;;;;;5469011;26;20302;-67
2024/05/04 10:11:12;;;;;;;;;;;17.40;99.90;;;;;;5449334;26;20010;-67
2024/05/04 10:13:38;;;;;;;4.57;1.80;;;17.40;99.90;;;;;;5444416;26;19936;-68
2024/05/04 10:16:04;;;;;;;4.57;1.85;;;17.50;99.90;;;;;;5467686;26;20026;-68
2024/05/04 10:18:38;;;;;;;3.15;1.60;;;17.60;99.90;;;;;;5479280;26;20006;-67
2024/05/04 10:21:04;;;;;;;6.88;2.10;;;17.80;99.90;;;;;;5466201;26;20014;-67
2024/05/04 10:23:40;;;;;;;;;;;17.90;99.90;;;;;;5467492;26;20424;-67
2024/05/04 10:26:05;;;;;;;5.13;1.52;;;18.00;99.90;;;;;;5466216;26;20036;-67
2024/05/04 10:28:31;;;;;;;;;;;18.00;99.90;;;;;;5443008;26;20006;-67
2024/05/04 10:30:58;;;;;;;8.32;1.33;;;18.00;99.90;;;;;;5440669;26;20020;-67
2024/05/04 10:33:25;;;;;;;3.22;1.05;;;18.00;99.90;;;;;;5476390;26;19998;-67
2024/05/04 10:35:51;;;;;;;2.30;1.10;;;17.90;99.90;;;;;;5437620;26;20082;-67
2024/05/04 10:38:16;;;;;;;;;;;17.90;99.90;;;;;;5445681;26;20006;-67
2024/05/04 10:40:43;;;;;;;4.82;1.27;;;17.90;99.90;;;;;;5452957;26;20013;-67
2024/05/04 10:43:09;;;;;;;5.75;1.80;;;17.90;99.90;;;;;;5464184;26;20400;-68
2024/05/04 10:45:34;;;;;;;;;;;17.80;99.90;;;;;;5465172;26;20006;-67
2024/05/04 10:48:00;;;;;;;3.65;1.30;;;17.80;99.90;;;;;;5469204;26;19931;-67
2024/05/04 10:50:26;;;;;;;;;;;17.80;99.90;;;;;;5439040;26;19998;-67
2024/05/04 10:52:51;;;;;;;2.65;1.00;;;17.80;99.90;;;;;;5440806;26;19924;-68
2024/05/04 10:55:17;;;;;;;;;;;17.80;99.90;;;;;;5446741;26;19998;-67
2024/05/04 10:57:46;;;;;;;4.57;1.33;;;17.90;99.90;;;;;;5476187;26;19931;-68
2024/05/04 11:00:12;;;;;;;5.80;1.20;;;17.90;99.90;;;;;;5449914;26;20006;-68
2024/05/04 11:02:39;;;;;;;6.13;2.05;;;18.00;99.90;;;;;;5453838;26;20002;-67
2024/05/04 11:05:05;;;;;;;3.08;1.00;;;18.00;99.90;;;;;;5474139;26;20324;-67
2024/05/04 11:07:31;;;;;;;;;;;18.00;99.90;;;;;;5468537;26;20002;-67
2024/05/04 11:09:56;;;;;;;5.40;1.20;;;17.80;99.90;;;;;;5443644;26;19924;-67
2024/05/04 11:12:22;;;;;;;;;;;17.80;99.90;;;;;;5470666;26;20321;-67
2024/05/04 11:14:48;;;;;;;3.53;0.90;;;17.80;99.90;;;;;;5472490;26;19924;-67
2024/05/04 11:17:20;;;;;;;;;;;17.80;99.90;;;;;;5436533;26;20006;-68
2024/05/04 11:19:46;;;;;;;6.57;1.50;;;17.90;99.90;;;;;;5474662;26;19960;-68
2024/05/04 11:22:14;;;;;;;;;;;18.00;99.90;;;;;;5446329;26;20003;-67
2024/05/04 11:24:40;;;;;;;2.17;1.17;;;18.10;99.90;;;;;;5473708;26;19952;-68
2024/05/04 11:27:06;;;;;;;;;;;18.20;99.90;;;;;;5448027;26;20348;-67
2024/05/04 11:29:32;;;;;;;5.18;1.00;;;18.20;99.90;;;;;;5476758;26;20270;-68
2024/05/04 11:31:57;;;;;;;4.88;1.40;;;18.20;99.90;;;;;;5449763;26;20103;-67
2024/05/04 11:34:23;;;;;;;;;;;18.10;99.90;;;;;;5450837;26;20013;-67
2024/05/04 11:36:48;;;;;;;4.18;1.13;;;18.10;99.90;;;;;;5470304;26;20330;-68
2024/05/04 11:39:14;;;;;;;;;;;18.10;99.70;;;;;;5454446;26;20506;-67
2024/05/04 11:41:41;;;;;;;5.30;1.10;;;18.10;99.90;;;;;;5446523;26;19925;-67
2024/05/04 11:44:08;;;;;;;5.35;1.58;;;18.00;99.90;;;;;;5466536;26;19998;-67
2024/05/04 11:46:33;;;;;;;2.97;0.80;;;18.00;99.20;;;;;;5470820;26;20073;-67
2024/05/04 11:48:59;;;;;;;;;;;18.00;99.90;;;;;;5477159;26;20425;-67
2024/05/04 11:51:25;;;;;;;3.33;1.00;;;18.00;99.90;;;;;;5479034;26;19924;-67
2024/05/04 11:53:50;;;;;;;;;;;18.00;99.90;;;;;;5468497;26;19995;-67
2024/05/04 11:56:16;;;;;;;3.30;1.00;;;18.10;99.90;;;;;;5446976;26;19993;-68
2024/05/04 11:58:41;;;;;;;;;;;18.20;99.90;;;;;;5475069;26;20008;-68
2024/05/04 12:01:07;;;;;;;9.48;1.27;;;18.30;99.90;;;;;;5466362;26;20363;-67
2024/05/04 12:03:33;;;;;;;;;;;18.40;99.90;;;;;;5452881;26;19995;-67
2024/05/04 12:05:58;;;;;;;6.20;1.20;;;18.40;99.70;;;;;;5460850;26;19933;-68
2024/05/04 12:08:24;;;;;;;;;;;18.50;99.90;;;;;;5468396;26;20040;-67
2024/05/04 12:10:50;;;;;;;4.57;1.17;;;18.50;99.90;;;;;;5472195;26;19930;-67
2024/05/04 12:13:15;;;;;;;3.35;1.17;;;18.50;99.40;;;;;;5465768;26;20005;-67
2024/05/04 12:15:41;;;;;;;5.38;1.13;;;18.50;99.40;;;;;;5474651;26;20435;-67
2024/05/04 12:18:06;;;;;;;6.15;1.27;;;18.40;99.80;;;;;;5443057;26;19995;-67
2024/05/04 12:20:33;;;;;;;5.63;1.20;;;18.40;99.20;;;;;;5470398;26;20002;-67
2024/05/04 12:22:59;;;;;;;3.38;0.95;;;18.40;99.50;;;;;;5471904;26;19994;-67
2024/05/04 12:25:24;;;;;;;;;;;18.30;99.20;;;;;;5464898;26;20002;-67
2024/05/04 12:27:50;;;;;;;3.38;1.15;;;18.20;99.60;;;;;;5474956;26;20417;-68
2024/05/04 12:30:16;;;;;;;2.55;1.10;;;18.20;99.80;;;;;;5475015;26;20006;-67
2024/05/04 12:32:42;;;;;;;;;;;18.20;99.50;;;;;;5468720;26;20422;-67
2024/05/04 12:35:10;;;;;;;5.90;2.10;;;18.10;97.50;;;;;;5450307;26;20558;-67
2024/05/04 12:37:36;;;;;;;5.28;2.78;;;18.00;97.90;;;;;;5464752;26;20487;-67
2024/05/04 12:40:02;;;;;;;4.88;1.98;;;17.90;97.80;;;;;;5465118;26;20002;-67
2024/05/04 12:42:28;;;;;;;;;;;17.80;98.70;;;;;;5469647;26;20086;-67
2024/05/04 12:44:53;;;;;;;3.42;1.00;;;17.80;98.50;;;;;;5476437;26;19965;-66
2024/05/04 12:47:19;;;;;;;;;;;17.80;98.90;;;;;;5467260;26;19999;-67